Barnerville, New York
Current Conditions -  °F | °C
As of 5:15 PM on Thursday 23 Oct 2014 (Local Time) from KNY0 Reporting Station
Overcast Overcast  
Wind Chill: 47°   Ceiling: 2100
Heat Index: 47°   Visibility: 10mi
Dew Point: 45°   Wind: 3mph
Humidity: 93%   Direction: 310°NW
Pressure: 29.84"   Gusts: NA
Location:  42.7023°N, 74.392°W
Report Text: KNY0 232115Z AUTO 31003KT 10SM OVC021 08/07 A2984 RMK AO2 P0001 T00810070
Loading
Personal Weather Stations






























Interactive Weather Map New forecast layout! Learn more

10-Day Weather Forecast

Advertisements
Track Severe Weather on mobile